Time;durP1;ratioP1;P1;durP2;ratioP2;P2;SDS_P1;SDS_P2;PMS_P1;PMS_P2;Temp;Humidity;BMP_temperature;BMP_pressure;BME280_temperature;BME280_humidity;BME280_pressure;Samples;Min_cycle;Max_cycle;Signal;HPM_P1;HPM_P2
2022/12/31 00:00:16;;;;;;;0.22;0.22;;;;;;;11.77;76.75;96493.41;6155284;23;20032;-79
2022/12/31 00:02:45;;;;;;;0.28;0.20;;;;;;;11.78;76.86;96500.22;6155245;23;20030;-79
2022/12/31 01:15:26;;;;;;;0.10;0.10;;;;;;;11.99;78.70;96553.50;6148925;23;20313;-79
2022/12/31 01:17:53;;;;;;;0.10;0.10;;;;;;;12.01;78.79;96560.13;6183744;23;20025;-79
2022/12/31 01:20:21;;;;;;;0.30;0.10;;;;;;;12.03;78.60;96552.09;6184506;23;20481;-79
2022/12/31 01:22:48;;;;;;;0.22;0.10;;;;;;;12.05;78.49;96560.56;6184584;23;20496;-79
2022/12/31 01:25:16;;;;;;;0.20;0.20;;;;;;;12.06;78.47;96560.34;6173729;23;20022;-79
2022/12/31 01:27:44;;;;;;;0.20;0.20;;;;;;;12.08;78.25;96560.16;6156732;23;20105;-79
2022/12/31 01:51:51;;;;;;;2.97;0.50;;;;;;;12.34;76.87;96581.25;6177885;23;20616;-78
2022/12/31 01:54:22;;;;;;;0.70;0.30;;;;;;;12.38;76.85;96588.72;6186478;23;20794;-78
2022/12/31 01:56:53;;;;;;;1.33;0.25;;;;;;;12.41;76.46;96590.94;6186252;23;20017;-78
2022/12/31 01:59:24;;;;;;;0.57;0.20;;;;;;;12.45;76.32;96592.97;6185401;23;20021;-79
2022/12/31 02:01:52;;;;;;;2.08;0.38;;;;;;;12.46;76.29;96588.53;6155751;23;20365;-79
2022/12/31 02:04:22;;;;;;;2.28;0.20;;;;;;;12.48;76.06;96602.22;6156076;23;20022;-80
2022/12/31 02:06:56;;;;;;;1.88;0.30;;;;;;;12.51;76.07;96605.28;6156411;23;20048;-80
2022/12/31 02:09:23;;;;;;;0.22;0.22;;;;;;;12.54;76.02;96609.31;6156037;23;20028;-80
2022/12/31 02:11:51;;;;;;;0.30;0.20;;;;;;;12.56;75.78;96605.50;6155721;23;20014;-80
2022/12/31 02:14:23;;;;;;;0.55;0.10;;;;;;;12.61;75.40;96606.72;6167341;23;20390;-79
2022/12/31 02:16:59;;;;;;;0.20;0.20;;;;;;;12.63;75.22;96599.50;6182355;23;20068;-79
2022/12/31 02:20:21;;;;;;;0.28;0.28;;;;;;;12.67;75.38;96600.72;6180248;23;20040;-79
2022/12/31 02:23:10;;;;;;;0.73;0.10;;;;;;;12.69;75.04;96604.75;6158270;23;20033;-79
2022/12/31 02:25:55;;;;;;;0.20;0.20;;;;;;;12.72;74.79;96608.78;6156816;23;20489;-80
2022/12/31 02:28:43;;;;;;;0.20;0.20;;;;;;;12.74;74.77;96612.81;6156181;23;20030;-79
2022/12/31 02:31:16;;;;;;;0.93;0.20;;;;;;;12.77;74.15;96609.03;6155698;23;20361;-80
2022/12/31 02:33:48;;;;;;;;;;;;;;;12.82;74.24;96611.06;6156633;23;20371;-80
2022/12/31 02:36:20;;;;;;;0.47;0.28;;;;;;;12.81;73.72;96612.84;6155431;23;20321;-79
2022/12/31 02:38:49;;;;;;;0.30;0.20;;;;;;;12.83;73.69;96621.31;6155859;23;20100;-80
2022/12/31 02:44:01;;;;;;;0.43;0.10;;;;;;;12.88;72.87;96623.34;6154237;23;20021;-80
2022/12/31 02:46:41;;;;;;;0.43;0.20;;;;;;;12.90;72.24;96621.34;6155520;23;20541;-80
2022/12/31 02:49:16;;;;;;;0.85;0.20;;;;;;;12.91;72.61;96620.34;6155887;23;20100;-80
2022/12/31 02:51:52;;;;;;;2.42;0.30;;;;;;;12.90;72.12;96622.19;6155481;23;20052;-80
2022/12/31 02:54:30;;;;;;;0.32;0.30;;;;;;;12.92;72.44;96624.56;6155947;23;20021;-80
2022/12/31 02:57:07;;;;;;;0.20;0.20;;;;;;;12.93;71.64;96615.72;6155453;23;20021;-80
2022/12/31 03:02:29;;;;;;;0.20;0.20;;;;;;;12.96;71.04;96620.56;6156034;23;20025;-80
2022/12/31 03:04:58;;;;;;;1.10;0.40;;;;;;;12.97;71.22;96630.06;6155471;23;20033;-80
2022/12/31 03:07:28;;;;;;;0.57;0.30;;;;;;;12.97;71.50;96623.00;6155456;23;20236;-80
2022/12/31 03:09:56;;;;;;;0.20;0.20;;;;;;;12.98;71.08;96621.97;6157004;23;20068;-80
2022/12/31 03:15:20;;;;;;;1.17;0.60;;;;;;;13.00;70.67;96627.03;6146886;23;20028;-80
2022/12/31 03:17:52;;;;;;;0.30;0.30;;;;;;;13.03;70.65;96637.13;6154877;23;20021;-80
2022/12/31 03:23:14;;;;;;;0.60;0.40;;;;;;;13.05;70.78;96624.63;6155058;23;20482;-80
2022/12/31 03:25:42;;;;;;;0.80;0.20;;;;;;;13.08;70.62;96632.09;6155501;23;20021;-80
2022/12/31 03:28:13;;;;;;;0.52;0.30;;;;;;;13.11;70.28;96630.91;6154581;23;20479;-80
2022/12/31 03:30:43;;;;;;;0.80;0.40;;;;;;;13.13;70.46;96627.06;6154999;23;20092;-80
2022/12/31 03:33:13;;;;;;;0.70;0.30;;;;;;;13.15;70.15;96638.16;6155275;23;20028;-80
2022/12/31 03:35:42;;;;;;;0.65;0.40;;;;;;;13.18;70.08;96622.06;6155190;23;20021;-80
2022/12/31 03:38:09;;;;;;;0.60;0.22;;;;;;;13.22;69.86;96626.91;6154798;23;20022;-80
2022/12/31 03:40:39;;;;;;;0.25;0.20;;;;;;;13.23;69.99;96642.44;6155176;23;20021;-79
2022/12/31 03:43:07;;;;;;;0.80;0.22;;;;;;;13.26;69.88;96628.13;6155749;23;20045;-80
2022/12/31 03:45:35;;;;;;;3.70;0.50;;;;;;;13.28;69.64;96624.31;6155312;23;20089;-80
2022/12/31 03:48:03;;;;;;;0.25;0.20;;;;;;;13.30;69.84;96629.38;6154445;23;20026;-80
2022/12/31 03:50:32;;;;;;;0.20;0.20;;;;;;;13.32;69.59;96630.00;6154516;23;20524;-80
2022/12/31 03:53:00;;;;;;;0.60;0.30;;;;;;;13.33;69.98;96632.38;6155116;23;20025;-80
2022/12/31 03:55:27;;;;;;;0.80;0.20;;;;;;;13.34;69.60;96623.53;6155159;23;20104;-80
2022/12/31 03:57:55;;;;;;;0.63;0.20;;;;;;;13.36;69.48;96634.63;6154782;23;20028;-80
2022/12/31 04:00:23;;;;;;;0.32;0.32;;;;;;;13.38;69.44;96629.16;6154570;23;20465;-80
2022/12/31 04:02:50;;;;;;;0.50;0.50;;;;;;;13.38;70.17;96629.16;6155450;23;20071;-79
2022/12/31 04:05:19;;;;;;;0.77;0.30;;;;;;;13.40;69.64;96642.88;6155265;23;20023;-80
2022/12/31 04:07:50;;;;;;;0.30;0.30;;;;;;;13.40;69.47;96637.66;6154617;23;20017;-79
2022/12/31 04:10:19;;;;;;;0.82;0.47;;;;;;;13.42;69.56;96645.31;6154880;23;20025;-80
2022/12/31 04:12:47;;;;;;;0.22;0.22;;;;;;;13.43;69.79;96658.22;6154704;23;20024;-80
2022/12/31 04:15:18;;;;;;;0.22;0.20;;;;;;;13.46;69.46;96654.41;6155211;23;20022;-79
2022/12/31 04:17:46;;;;;;;0.50;0.20;;;;;;;13.47;69.62;96643.72;6154501;23;20030;-80
2022/12/31 04:20:14;;;;;;;1.80;0.30;;;;;;;13.49;69.47;96660.06;6154606;23;20096;-80
2022/12/31 04:22:42;;;;;;;0.32;0.20;;;;;;;13.52;69.65;96651.00;6154864;23;20104;-80
2022/12/31 04:25:11;;;;;;;0.30;0.20;;;;;;;13.53;69.59;96647.34;6154980;23;20052;-80
2022/12/31 04:27:40;;;;;;;0.82;0.30;;;;;;;13.55;69.40;96661.88;6154929;23;20041;-79
2022/12/31 04:30:08;;;;;;;1.00;0.13;;;;;;;13.57;69.72;96659.84;6167020;23;20031;-79
2022/12/31 04:32:36;;;;;;;0.22;0.13;;;;;;;13.60;69.54;96667.34;6173522;23;20025;-80
2022/12/31 04:35:04;;;;;;;0.60;0.10;;;;;;;13.63;69.78;96667.94;6171260;23;20077;-80
2022/12/31 04:37:32;;;;;;;3.25;0.20;;;;;;;13.65;69.47;96658.88;6154686;23;20021;-80
2022/12/31 04:39:59;;;;;;;0.32;0.10;;;;;;;13.68;69.46;96676.00;6157041;23;20033;-79
2022/12/31 04:42:34;;;;;;;0.13;0.10;;;;;;;13.71;69.86;96676.44;6180684;23;20009;-80
2022/12/31 04:45:02;;;;;;;0.40;0.20;;;;;;;13.74;69.55;96672.59;6181262;23;20073;-79
2022/12/31 04:47:29;;;;;;;1.55;0.10;;;;;;;13.77;69.64;96661.69;6163267;23;20024;-80
2022/12/31 04:49:57;;;;;;;0.20;0.20;;;;;;;13.78;69.45;96673.81;6154765;23;20022;-80
2022/12/31 04:52:24;;;;;;;0.17;0.10;;;;;;;13.81;69.51;96691.75;6155513;23;20354;-80
2022/12/31 04:54:52;;;;;;;0.20;0.20;;;;;;;13.82;69.53;96682.91;6155430;23;20028;-80
2022/12/31 04:57:19;;;;;;;0.85;0.20;;;;;;;13.86;69.35;96678.03;6155168;23;20358;-80
2022/12/31 04:59:48;;;;;;;0.17;0.10;;;;;;;13.89;69.06;96675.03;6155611;23;20022;-80
2022/12/31 05:02:15;;;;;;;0.30;0.30;;;;;;;13.92;69.33;96680.66;6156518;23;20025;-80
2022/12/31 05:04:43;;;;;;;0.50;0.30;;;;;;;13.93;69.70;96677.06;6157087;23;20108;-80
2022/12/31 05:07:11;;;;;;;1.05;0.13;;;;;;;13.95;69.22;96667.19;6156626;23;20466;-80
2022/12/31 05:09:38;;;;;;;0.85;0.10;;;;;;;13.98;69.23;96672.00;6156868;23;20043;-80
2022/12/31 05:12:06;;;;;;;0.85;0.30;;;;;;;13.99;69.66;96683.28;6156782;23;20032;-79
2022/12/31 05:14:34;;;;;;;0.10;0.10;;;;;;;13.99;69.32;96684.13;6156616;23;20365;-79
2022/12/31 05:17:02;;;;;;;1.17;0.38;;;;;;;14.00;69.18;96688.34;6156505;23;20026;-80
2022/12/31 05:19:30;;;;;;;0.30;0.10;;;;;;;14.01;69.15;96697.03;6156131;23;20022;-80
2022/12/31 05:24:51;;;;;;;0.20;0.20;;;;;;;14.06;68.90;96704.28;6103739;23;20025;-80
2022/12/31 05:27:18;;;;;;;0.47;0.10;;;;;;;14.08;69.76;96702.25;6156671;23;20454;-79
2022/12/31 05:29:46;;;;;;;0.13;0.10;;;;;;;14.08;69.55;96707.50;6155791;23;20029;-80
2022/12/31 05:32:15;;;;;;;0.20;0.10;;;;;;;14.08;69.36;96695.22;6157419;23;20021;-80
2022/12/31 05:34:42;;;;;;;0.45;0.20;;;;;;;14.09;69.07;96696.03;6156848;23;20022;-79
2022/12/31 05:37:10;;;;;;;0.25;0.25;;;;;;;14.11;69.53;96704.50;6156565;23;20466;-80
2022/12/31 05:39:38;;;;;;;0.57;0.25;;;;;;;14.13;69.45;96692.78;6156408;23;20025;-80
2022/12/31 05:42:05;;;;;;;0.10;0.10;;;;;;;14.15;69.36;96706.53;6157025;23;20025;-80
2022/12/31 05:44:33;;;;;;;0.55;0.10;;;;;;;14.16;69.40;96705.50;6157265;23;20028;-79
2022/12/31 05:47:00;;;;;;;0.82;0.10;;;;;;;14.18;69.48;96715.81;6156113;23;20029;-80
2022/12/31 05:49:29;;;;;;;0.47;0.10;;;;;;;14.20;69.43;96716.41;6156220;23;20021;-80
2022/12/31 05:51:57;;;;;;;0.08;0.08;;;;;;;14.21;69.59;96728.50;6156406;23;20349;-79
2022/12/31 05:54:25;;;;;;;0.20;0.10;;;;;;;14.21;69.66;96728.50;6156211;23;20021;-80
2022/12/31 05:56:52;;;;;;;0.10;0.10;;;;;;;14.19;69.74;96728.72;6156298;23;20349;-80
2022/12/31 05:59:20;;;;;;;0.35;0.10;;;;;;;14.20;69.48;96740.03;6155867;23;20017;-79
2022/12/31 06:01:47;;;;;;;0.22;0.10;;;;;;;14.20;69.45;96742.66;6155803;23;20033;-79
2022/12/31 06:04:15;;;;;;;0.17;0.17;;;;;;;14.21;69.59;96737.22;6156252;23;20027;-79
2022/12/31 06:06:44;;;;;;;0.10;0.10;;;;;;;14.21;69.47;96745.06;6156300;23;20100;-80
2022/12/31 06:09:13;;;;;;;0.40;0.10;;;;;;;14.21;69.39;96739.00;6169223;23;20025;-80
2022/12/31 06:11:40;;;;;;;0.10;0.10;;;;;;;14.22;69.91;96735.38;6177387;23;20025;-80
2022/12/31 06:14:08;;;;;;;1.10;0.10;;;;;;;14.21;69.66;96739.00;6175801;23;20473;-79
2022/12/31 06:16:36;;;;;;;0.47;0.32;;;;;;;14.21;69.82;96736.38;6158364;23;20032;-80
2022/12/31 06:19:04;;;;;;;0.22;0.20;;;;;;;14.21;69.69;96739.00;6156949;23;20021;-80
2022/12/31 06:21:31;;;;;;;1.30;0.10;;;;;;;14.22;69.72;96732.75;6156274;23;20075;-79
2022/12/31 06:24:00;;;;;;;0.10;0.10;;;;;;;14.23;69.72;96747.47;6156403;23;20353;-80
2022/12/31 06:26:28;;;;;;;0.25;0.10;;;;;;;14.25;69.99;96742.84;6156092;23;20022;-80
2022/12/31 06:28:55;;;;;;;0.30;0.30;;;;;;;14.25;70.30;96740.22;6155701;23;20207;-80
2022/12/31 06:31:23;;;;;;;0.20;0.10;;;;;;;14.26;70.01;96752.34;6156141;23;20028;-80
2022/12/31 06:33:50;;;;;;;0.10;0.10;;;;;;;14.27;69.97;96751.31;6155610;23;20466;-80
2022/12/31 06:36:18;;;;;;;0.40;0.10;;;;;;;14.28;70.02;96760.00;6156083;23;20027;-80
2022/12/31 06:38:45;;;;;;;0.25;0.15;;;;;;;14.29;69.91;96772.91;6155317;23;20029;-79
2022/12/31 06:41:17;;;;;;;3.13;0.10;;;;;;;14.30;69.99;96771.09;6155842;23;20354;-80
2022/12/31 06:43:45;;;;;;;0.20;0.17;;;;;;;14.30;70.30;96766.69;6156130;23;20087;-80
2022/12/31 06:46:14;;;;;;;0.17;0.17;;;;;;;14.30;69.72;96758.81;6155838;23;20017;-80
2022/12/31 06:48:43;;;;;;;1.50;0.52;;;;;;;14.32;70.15;96766.44;6155394;23;20465;-80
2022/12/31 06:51:14;;;;;;;1.48;0.20;;;;;;;14.33;69.74;96761.00;6155176;23;20045;-79
2022/12/31 06:53:44;;;;;;;0.40;0.10;;;;;;;14.34;69.67;96774.94;6155784;23;20056;-80
2022/12/31 06:56:17;;;;;;;0.43;0.10;;;;;;;14.33;69.71;96768.88;6155430;23;20025;-80
2022/12/31 06:58:46;;;;;;;0.30;0.20;;;;;;;14.35;69.45;96776.56;6155167;23;20021;-80
2022/12/31 07:01:37;;;;;;;0.85;0.70;;;;;;;14.35;69.14;96777.38;6155806;23;20057;-80
2022/12/31 07:04:26;;;;;;;0.55;0.55;;;;;;;14.36;69.21;96765.84;6155377;23;20505;-80
2022/12/31 07:07:00;;;;;;;0.65;0.10;;;;;;;14.37;69.08;96780.59;6155790;23;20101;-80
2022/12/31 07:09:37;;;;;;;0.55;0.40;;;;;;;14.37;68.95;96771.94;6155535;23;20366;-80
2022/12/31 07:12:20;;;;;;;24.85;15.45;;;;;;;14.36;69.58;96767.66;6155712;23;20026;-80
2022/12/31 07:14:54;;;;;;;1.70;1.05;;;;;;;14.36;68.99;96784.22;6155750;23;20022;-80
2022/12/31 07:17:30;;;;;;;0.40;0.40;;;;;;;14.38;69.23;96792.69;6155607;23;20027;-79
2022/12/31 07:20:03;;;;;;;0.30;0.22;;;;;;;14.37;69.43;96795.53;6154933;23;20049;-80
2022/12/31 07:22:31;;;;;;;0.32;0.15;;;;;;;14.37;69.08;96800.78;6155231;23;20052;-79
2022/12/31 07:24:59;;;;;;;0.40;0.20;;;;;;;14.37;69.35;96787.66;6155164;23;20028;-79
2022/12/31 07:27:48;;;;;;;0.20;0.10;;;;;;;14.38;69.31;96791.91;6155597;23;20028;-80
2022/12/31 07:30:19;;;;;;;19.95;12.13;;;;;;;14.38;69.35;96795.31;6155368;23;20089;-80
2022/12/31 07:33:06;;;;;;;3.42;2.47;;;;;;;14.38;69.47;96790.06;6155328;23;20528;-80
2022/12/31 07:35:43;;;;;;;0.35;0.30;;;;;;;14.37;69.23;96788.47;6155800;23;20021;-80
2022/12/31 07:38:20;;;;;;;0.20;0.20;;;;;;;14.36;69.00;96786.84;6154298;23;20043;-80
2022/12/31 07:40:58;;;;;;;1.20;0.30;;;;;;;14.34;69.87;96788.88;6155180;23;20025;-80
2022/12/31 07:43:43;;;;;;;0.60;0.20;;;;;;;14.33;69.89;96792.50;6155081;23;20536;-80
2022/12/31 07:46:16;;;;;;;0.10;0.10;;;;;;;14.33;69.07;96791.69;6155378;23;20022;-80
2022/12/31 07:48:44;;;;;;;0.10;0.10;;;;;;;14.32;69.40;96797.94;6154838;23;20028;-80
2022/12/31 07:51:13;;;;;;;0.28;0.20;;;;;;;14.31;69.35;96801.59;6154686;23;20100;-80
2022/12/31 07:53:40;;;;;;;0.40;0.30;;;;;;;14.31;69.27;96799.75;6154835;23;20021;-80
2022/12/31 07:56:09;;;;;;;0.20;0.20;;;;;;;14.31;69.33;96812.88;6155467;23;20034;-79
2022/12/31 07:58:54;;;;;;;0.77;0.22;;;;;;;14.33;68.96;96791.69;6154867;23;20354;-80
2022/12/31 08:01:32;;;;;;;0.22;0.22;;;;;;;14.34;69.35;96804.63;6155460;23;20029;-80
2022/12/31 08:14:46;;;;;;;1.45;1.10;;;;;;;14.34;69.02;96817.75;6137130;23;20526;-82
2022/12/31 08:17:16;;;;;;;0.28;0.20;;;;;;;14.33;68.58;96821.38;6198795;23;20031;-83
2022/12/31 08:19:45;;;;;;;0.47;0.47;;;;;;;14.35;69.39;96829.84;6198451;23;20021;-81
2022/12/31 08:22:28;;;;;;;2.58;0.40;;;;;;;14.35;69.03;96834.31;6201257;23;20025;-82
2022/12/31 08:25:10;;;;;;;0.63;0.30;;;;;;;14.34;68.79;96823.00;6184868;23;20026;-82
2022/12/31 08:27:47;;;;;;;0.40;0.40;;;;;;;14.34;68.79;96817.75;6171304;23;20077;-83
2022/12/31 08:30:19;;;;;;;0.50;0.40;;;;;;;14.34;68.80;96820.38;6170163;23;20361;-83
2022/12/31 08:32:51;;;;;;;1.50;0.28;;;;;;;14.35;68.47;96835.09;6170217;23;20069;-80
2022/12/31 08:35:31;;;;;;;0.52;0.17;;;;;;;14.36;68.79;96835.91;6174485;23;20069;-81
2022/12/31 08:38:06;;;;;;;3.45;0.75;;;;;;;14.34;69.13;96838.75;6172219;23;20027;-81
2022/12/31 08:40:43;;;;;;;0.30;0.25;;;;;;;14.35;68.42;96850.03;6173168;23;20032;-80
2022/12/31 08:43:26;;;;;;;0.28;0.28;;;;;;;14.36;69.01;96847.19;6172652;23;20567;-81
2022/12/31 08:45:57;;;;;;;1.27;0.30;;;;;;;14.37;68.94;96838.34;6173550;23;20473;-80
2022/12/31 08:48:30;;;;;;;0.20;0.20;;;;;;;14.41;68.38;96847.44;6171726;23;20389;-79
2022/12/31 08:50:58;;;;;;;1.13;0.17;;;;;;;14.46;68.04;96851.28;6171736;23;20393;-84
2022/12/31 08:53:26;;;;;;;0.65;0.50;;;;;;;14.50;67.75;96847.25;6170971;23;20073;-81
2022/12/31 08:56:00;;;;;;;1.70;0.40;;;;;;;14.52;67.61;96838.16;6170636;23;20021;-79
2022/12/31 08:58:41;;;;;;;1.33;0.50;;;;;;;14.54;67.94;96851.06;6169775;23;20025;-80
2022/12/31 09:01:14;;;;;;;0.73;0.73;;;;;;;14.55;67.93;96844.84;6168552;23;20342;-79
2022/12/31 09:03:50;;;;;;;;;;;;;;;14.56;67.72;96847.28;6170368;23;20021;-79
2022/12/31 09:06:26;;;;;;;0.90;0.77;;;;;;;14.56;67.75;96847.28;6171766;23;19916;-79
2022/12/31 09:09:00;;;;;;;0.60;0.50;;;;;;;14.58;67.86;96854.94;6168266;23;20424;-81
2022/12/31 09:11:33;;;;;;;0.30;0.30;;;;;;;14.61;68.02;96854.56;6168879;23;20017;-80
2022/12/31 09:14:15;;;;;;;0.55;0.20;;;;;;;14.65;67.56;96850.53;6168540;23;20029;-79
2022/12/31 09:16:52;;;;;;;0.22;0.22;;;;;;;14.69;67.36;96859.59;6140756;23;20018;-79
2022/12/31 09:19:20;;;;;;;0.63;0.52;;;;;;;14.74;67.86;96862.44;6167380;23;20041;-79
2022/12/31 09:21:48;;;;;;;0.25;0.20;;;;;;;14.78;67.68;96865.44;6169078;23;20032;-80
2022/12/31 09:24:16;;;;;;;0.30;0.22;;;;;;;14.82;67.35;96870.13;6166962;23;20469;-81
2022/12/31 09:26:56;;;;;;;0.20;0.20;;;;;;;14.88;67.17;96872.94;6168043;23;20036;-79
2022/12/31 09:29:37;;;;;;;0.85;0.40;;;;;;;14.92;66.94;96866.28;6166367;23;20017;-81
2022/12/31 09:32:19;;;;;;;0.82;0.43;;;;;;;14.95;65.80;96882.41;6169969;23;20076;-83
2022/12/31 09:34:54;;;;;;;0.22;0.22;;;;;;;14.99;66.83;96873.13;6177417;23;20045;-81
2022/12/31 09:37:35;;;;;;;2.78;0.75;;;;;;;15.02;66.10;96887.69;6176453;23;20035;-83
2022/12/31 09:40:23;;;;;;;0.80;0.47;;;;;;;15.04;65.82;96880.41;6174538;23;20069;-86
2022/12/31 09:43:08;;;;;;;0.28;0.28;;;;;;;15.09;66.34;96882.44;6174317;23;20073;-84
2022/12/31 09:45:55;;;;;;;0.93;0.40;;;;;;;15.15;66.85;96871.09;6173283;23;20025;-81
2022/12/31 09:49:07;;;;;;;1.52;0.40;;;;;;;15.22;66.36;96883.22;6172591;23;20025;-83
2022/12/31 09:51:42;;;;;;;0.33;0.33;;;;;;;15.30;66.60;96884.03;6155953;23;20025;-79
2022/12/31 09:54:28;;;;;;;1.08;0.50;;;;;;;15.34;66.42;96895.75;6170988;23;20057;-85
2022/12/31 09:57:13;;;;;;;0.20;0.20;;;;;;;15.38;66.04;96887.25;6174357;23;20025;-85
2022/12/31 09:59:49;;;;;;;0.73;0.30;;;;;;;15.44;65.44;96891.69;6176203;23;20018;-84
2022/12/31 10:02:28;;;;;;;0.95;0.60;;;;;;;15.52;64.91;96887.22;6176150;23;20081;-83
2022/12/31 10:05:20;;;;;;;0.57;0.40;;;;;;;15.61;63.89;96891.22;6175949;23;20025;-86
2022/12/31 10:07:59;;;;;;;2.10;0.45;;;;;;;15.70;64.68;96878.66;6176287;23;20025;-83
2022/12/31 10:10:34;;;;;;;1.30;0.40;;;;;;;15.79;65.25;96888.00;6174941;23;20013;-83
2022/12/31 10:13:33;;;;;;;1.63;0.60;;;;;;;15.88;63.41;96886.75;6174680;23;20397;-82
2022/12/31 10:16:49;;;;;;;0.80;0.45;;;;;;;15.99;63.76;96887.91;6173727;23;20097;-83
2022/12/31 10:19:36;;;;;;;0.30;0.30;;;;;;;16.05;64.47;96898.41;6174833;23;20453;-85
2022/12/31 10:22:32;;;;;;;0.10;0.10;;;;;;;16.13;62.50;96896.56;6173823;23;20026;-83
2022/12/31 10:25:20;;;;;;;1.02;0.20;;;;;;;16.22;61.02;96887.41;6172898;23;20043;-84
2022/12/31 10:28:18;;;;;;;1.15;0.30;;;;;;;16.31;61.14;96901.94;6172589;23;20032;-86
2022/12/31 10:30:59;;;;;;;1.77;0.30;;;;;;;16.39;61.31;96904.31;6173199;23;20021;-86
2022/12/31 10:33:42;;;;;;;1.95;0.70;;;;;;;16.45;61.69;96889.50;6173173;23;20052;-85
2022/12/31 10:36:18;;;;;;;0.85;0.68;;;;;;;16.53;61.07;96867.38;6172089;23;20025;-87
2022/12/31 10:39:02;;;;;;;2.67;0.60;;;;;;;16.61;61.03;96880.28;6170590;23;20492;-81
2022/12/31 10:42:04;;;;;;;0.60;0.28;;;;;;;16.71;60.45;96870.09;6169582;23;20091;-82
2022/12/31 10:44:57;;;;;;;0.50;0.30;;;;;;;16.81;59.60;96886.25;6168862;23;20458;-82
2022/12/31 10:47:48;;;;;;;0.63;0.10;;;;;;;16.91;59.46;96879.72;6169995;23;20014;-86
2022/12/31 10:50:47;;;;;;;1.08;0.32;;;;;;;17.01;58.66;96893.19;6170514;23;20068;-82
2022/12/31 10:53:37;;;;;;;0.20;0.20;;;;;;;17.13;58.02;96870.41;6170672;23;20073;-85
2022/12/31 10:56:25;;;;;;;0.75;0.30;;;;;;;17.23;58.55;96894.44;6168240;23;20033;-83
2022/12/31 10:59:33;;;;;;;1.75;0.50;;;;;;;17.34;58.13;96876.28;6168415;23;20481;-83
2022/12/31 11:02:23;;;;;;;0.95;0.32;;;;;;;17.43;56.74;96872.34;6169416;23;20069;-82
2022/12/31 11:05:11;;;;;;;0.70;0.38;;;;;;;17.53;57.60;96893.72;6167875;23;20057;-83
2022/12/31 11:08:02;;;;;;;0.22;0.22;;;;;;;17.63;56.55;96869.50;6167400;23;20045;-85
2022/12/31 11:10:56;;;;;;;0.82;0.20;;;;;;;17.73;55.80;96871.63;6166237;23;20013;-85
2022/12/31 11:13:48;;;;;;;0.68;0.40;;;;;;;17.83;55.77;96877.22;6168642;23;20053;-79
2022/12/31 11:16:30;;;;;;;0.35;0.30;;;;;;;17.89;57.06;96876.34;6168480;23;20045;-80
2022/12/31 11:19:01;;;;;;;;;;;;;;;17.97;56.81;96857.53;6168157;23;20028;-80
2022/12/31 11:21:47;;;;;;;0.30;0.30;;;;;;;18.04;56.12;96873.34;6168326;23;19939;-81
2022/12/31 11:24:27;;;;;;;0.20;0.13;;;;;;;18.14;55.02;96870.16;6167661;23;20049;-85
2022/12/31 11:27:09;;;;;;;1.98;0.75;;;;;;;18.24;54.56;96865.16;6169089;23;20022;-82
2022/12/31 11:29:55;;;;;;;0.90;0.28;;;;;;;18.36;54.64;96865.19;6169152;23;20056;-84
2022/12/31 11:32:43;;;;;;;0.57;0.30;;;;;;;18.46;53.59;96858.31;6175339;23;20053;-84
2022/12/31 11:35:32;;;;;;;0.65;0.20;;;;;;;18.60;53.41;96856.28;6178011;23;20013;-85
2022/12/31 11:38:12;;;;;;;1.05;0.75;;;;;;;18.71;53.80;96852.06;6176192;23;20032;-83
2022/12/31 11:40:52;;;;;;;0.93;0.40;;;;;;;18.83;52.59;96844.19;6175663;23;20077;-84
2022/12/31 11:43:26;;;;;;;0.85;0.38;;;;;;;18.93;51.98;96845.25;6175613;23;20032;-87
2022/12/31 11:46:25;;;;;;;1.77;0.90;;;;;;;19.03;53.20;96844.66;6175857;23;20350;-86
2022/12/31 11:49:04;;;;;;;0.70;0.30;;;;;;;19.12;52.05;96837.19;6174795;23;20025;-86
2022/12/31 11:51:47;;;;;;;1.60;0.40;;;;;;;19.18;53.77;96838.91;6175023;23;20426;-87
2022/12/31 11:54:50;;;;;;;1.08;0.40;;;;;;;19.25;54.00;96825.56;6175285;23;20028;-80
2022/12/31 11:57:25;;;;;;;0.30;0.20;;;;;;;19.30;53.98;96834.41;6174511;23;20355;-82
2022/12/31 11:59:57;;;;;;;0.45;0.13;;;;;;;19.37;53.12;96831.66;6174413;23;20022;-82
2022/12/31 12:02:31;;;;;;;0.75;0.22;;;;;;;19.46;51.11;96842.69;6174649;23;20049;-85
2022/12/31 12:05:04;;;;;;;0.65;0.15;;;;;;;19.58;51.21;96837.38;6173810;23;20026;-82
2022/12/31 12:07:37;;;;;;;0.77;0.50;;;;;;;19.67;51.20;96831.47;6174129;23;20036;-81
2022/12/31 12:10:17;;;;;;;0.20;0.20;;;;;;;19.73;51.86;96838.53;6172788;23;20028;-81
2022/12/31 12:12:45;;;;;;;0.20;0.20;;;;;;;19.80;51.62;96837.59;6172685;23;20021;-80
2022/12/31 12:15:20;;;;;;;1.40;0.50;;;;;;;19.86;49.77;96832.16;6173661;23;20044;-82
2022/12/31 12:17:54;;;;;;;0.50;0.32;;;;;;;19.91;51.63;96834.91;6173525;23;20369;-83
2022/12/31 12:20:28;;;;;;;0.95;0.32;;;;;;;19.97;50.70;96827.88;6173170;23;20072;-80
2022/12/31 12:22:57;;;;;;;0.30;0.20;;;;;;;20.01;51.33;96826.38;6172568;23;20021;-84
2022/12/31 12:25:27;;;;;;;0.47;0.40;;;;;;;20.04;50.64;96825.88;6172242;23;20361;-80
2022/12/31 12:27:55;;;;;;;1.58;0.20;;;;;;;20.07;50.46;96824.59;6173028;23;20075;-84
2022/12/31 12:30:25;;;;;;;4.53;0.28;;;;;;;20.09;51.10;96825.16;6174386;23;20077;-86
2022/12/31 12:32:57;;;;;;;0.40;0.30;;;;;;;20.06;50.97;96823.78;6173630;23;20052;-81
2022/12/31 12:35:27;;;;;;;0.32;0.32;;;;;;;20.05;49.27;96819.56;6173088;23;20027;-84
2022/12/31 12:38:03;;;;;;;0.93;0.22;;;;;;;20.03;49.09;96826.94;6171491;23;20028;-82
2022/12/31 12:40:32;;;;;;;0.88;0.50;;;;;;;20.02;49.33;96824.50;6171596;23;20028;-80
2022/12/31 12:43:02;;;;;;;0.35;0.10;;;;;;;19.98;49.65;96816.22;6170872;23;20022;-83
2022/12/31 12:45:41;;;;;;;0.63;0.20;;;;;;;19.95;48.42;96814.84;6170228;23;20021;-80
2022/12/31 12:48:21;;;;;;;1.77;0.65;;;;;;;19.92;49.59;96809.25;6171141;23;20022;-81
2022/12/31 12:50:49;;;;;;;1.13;0.80;;;;;;;19.88;50.98;96808.09;6171784;23;20100;-80
2022/12/31 12:53:29;;;;;;;2.42;0.93;;;;;;;19.79;52.10;96810.31;6170826;23;20104;-81
2022/12/31 12:56:08;;;;;;;0.75;0.57;;;;;;;19.74;50.04;96810.22;6170841;23;20052;-80
2022/12/31 12:58:48;;;;;;;0.30;0.30;;;;;;;19.70;49.48;96814.34;6170204;23;20022;-79
2022/12/31 13:01:25;;;;;;;0.77;0.57;;;;;;;19.65;50.89;96820.31;6169169;23;20069;-81
2022/12/31 13:04:19;;;;;;;0.68;0.45;;;;;;;19.60;49.51;96812.28;6169452;23;20516;-81
2022/12/31 13:07:12;;;;;;;0.77;0.32;;;;;;;19.56;51.66;96811.16;6168691;23;20025;-84
2022/12/31 13:09:52;;;;;;;0.40;0.30;;;;;;;19.51;49.74;96805.75;6167666;23;20394;-80
2022/12/31 13:12:27;;;;;;;0.47;0.38;;;;;;;19.48;51.70;96816.78;6167725;23;20454;-80
2022/12/31 13:15:22;;;;;;;2.08;0.40;;;;;;;19.42;51.12;96805.31;6165475;23;20045;-81
2022/12/31 13:18:01;;;;;;;0.40;0.38;;;;;;;19.35;53.31;96805.44;6166195;23;20021;-80
2022/12/31 13:20:36;;;;;;;2.38;0.50;;;;;;;19.30;52.67;96807.97;6166236;23;20025;-80
2022/12/31 13:23:13;;;;;;;0.60;0.30;;;;;;;19.24;52.39;96798.34;6165684;23;20013;-80
2022/12/31 13:25:56;;;;;;;0.73;0.65;;;;;;;19.19;54.20;96800.84;6167898;23;20037;-79
2022/12/31 13:28:24;;;;;;;1.10;0.32;;;;;;;19.14;53.20;96798.09;6170953;23;20045;-81
2022/12/31 13:30:57;;;;;;;0.30;0.30;;;;;;;19.05;55.38;96800.28;6171204;23;20036;-83
2022/12/31 13:33:38;;;;;;;3.42;0.95;;;;;;;18.98;53.69;96796.16;6172571;23;20025;-81
2022/12/31 13:36:08;;;;;;;3.65;0.75;;;;;;;18.90;54.14;96798.09;6169973;23;20025;-81
2022/12/31 13:38:40;;;;;;;0.88;0.80;;;;;;;18.84;54.78;96799.03;6169474;23;20025;-80
2022/12/31 13:41:13;;;;;;;1.90;0.57;;;;;;;18.79;56.20;96801.56;6169331;23;20026;-81
2022/12/31 13:43:46;;;;;;;1.63;0.55;;;;;;;18.70;56.64;96802.91;6169370;23;20020;-82
2022/12/31 13:46:23;;;;;;;4.30;0.77;;;;;;;18.64;56.23;96809.09;6169930;23;20025;-82
2022/12/31 13:48:56;;;;;;;2.00;0.90;;;;;;;18.57;55.49;96800.47;6168961;23;20105;-85
2022/12/31 13:51:33;;;;;;;0.60;0.60;;;;;;;18.48;55.90;96798.16;6172699;23;20027;-87
2022/12/31 13:54:06;;;;;;;1.73;0.70;;;;;;;18.39;55.50;96791.59;6172377;23;20025;-87
2022/12/31 13:56:37;;;;;;;0.98;0.68;;;;;;;18.29;55.69;96797.41;6173393;23;20104;-83
2022/12/31 13:59:13;;;;;;;0.82;0.60;;;;;;;18.20;55.29;96798.78;6172642;23;20044;-81
2022/12/31 14:01:47;;;;;;;2.13;1.48;;;;;;;18.11;56.54;96808.03;6173479;23;20097;-85
2022/12/31 14:04:18;;;;;;;0.70;0.70;;;;;;;18.04;56.84;96809.97;6172429;23;20032;-84
2022/12/31 14:06:53;;;;;;;1.25;0.82;;;;;;;17.96;56.69;96813.72;6173069;23;20028;-87